createdAt,value
2022-09-06T00:02:45.036Z,19.82
2022-09-06T00:05:33.214Z,19.84
2022-09-06T00:08:21.215Z,19.79
2022-09-06T00:11:09.283Z,19.76
2022-09-06T00:13:57.036Z,19.76
2022-09-06T00:16:44.833Z,19.77
2022-09-06T00:19:32.616Z,19.67
2022-09-06T00:22:20.384Z,19.55
2022-09-06T00:25:08.826Z,19.74
2022-09-06T00:27:58.861Z,19.70
2022-09-06T00:30:47.077Z,19.56
2022-09-06T00:33:34.902Z,19.67
2022-09-06T00:36:23.423Z,19.68
2022-09-06T00:39:11.209Z,19.64
2022-09-06T00:41:58.969Z,19.59
2022-09-06T00:44:46.838Z,19.72
2022-09-06T00:47:36.925Z,19.67
2022-09-06T00:50:25.039Z,19.55
2022-09-06T00:53:12.922Z,19.55
2022-09-06T00:56:01.268Z,19.60
2022-09-06T00:58:49.812Z,19.61
2022-09-06T01:01:37.714Z,19.65
2022-09-06T01:04:27.381Z,19.59
2022-09-06T01:07:55.873Z,19.67
2022-09-06T01:11:33.485Z,19.63
2022-09-06T01:15:08.099Z,19.60
2022-09-06T01:18:41.534Z,19.55
2022-09-06T01:22:19.281Z,19.46
2022-09-06T01:25:33.876Z,19.40
2022-09-06T01:28:42.925Z,19.53
2022-09-06T01:31:41.625Z,19.56
2022-09-06T01:37:39.705Z,19.63
2022-09-06T01:40:28.527Z,19.70
2022-09-06T01:43:27.342Z,19.68
2022-09-06T01:46:29.894Z,19.64
2022-09-06T01:49:41.116Z,19.74
2022-09-06T01:52:34.140Z,19.63
2022-09-06T01:55:32.388Z,19.54
2022-09-06T01:58:57.622Z,19.42
2022-09-06T02:01:57.747Z,19.43
2022-09-06T02:04:52.480Z,19.43
2022-09-06T02:07:42.749Z,19.47
2022-09-06T02:10:40.215Z,19.42
2022-09-06T02:13:34.090Z,19.48
2022-09-06T02:16:26.942Z,19.80
2022-09-06T02:19:36.914Z,20.08
2022-09-06T02:22:30.616Z,20.27
2022-09-06T02:25:50.489Z,20.25
2022-09-06T02:28:38.557Z,20.45
2022-09-06T02:31:33.180Z,20.62
2022-09-06T02:34:21.858Z,20.58
2022-09-06T02:37:11.389Z,20.73
2022-09-06T02:40:00.263Z,20.74
2022-09-06T02:42:48.094Z,20.87
2022-09-06T02:45:35.823Z,20.97
2022-09-06T02:48:23.857Z,21.02
2022-09-06T02:51:11.615Z,20.99
2022-09-06T02:53:59.314Z,21.15
2022-09-06T02:56:51.559Z,21.24
2022-09-06T02:59:40.059Z,21.37
2022-09-06T03:02:27.850Z,21.43
2022-09-06T03:05:15.966Z,21.43
2022-09-06T03:08:03.842Z,21.46
2022-09-06T03:10:56.460Z,21.50
2022-09-06T03:13:44.206Z,21.45
2022-09-06T03:16:32.059Z,21.54
2022-09-06T03:19:20.165Z,21.55
2022-09-06T03:22:07.994Z,21.60
2022-09-06T03:24:55.737Z,21.61
2022-09-06T03:27:44.291Z,21.61
2022-09-06T03:30:32.078Z,21.29
2022-09-06T03:33:20.712Z,21.05
2022-09-06T03:36:08.780Z,20.97
2022-09-06T03:38:56.525Z,20.81
2022-09-06T03:41:44.286Z,20.41
2022-09-06T03:44:32.089Z,20.23
2022-09-06T03:47:20.757Z,20.06
2022-09-06T03:50:09.148Z,19.82
2022-09-06T03:52:56.871Z,19.92
2022-09-06T03:55:46.729Z,19.91
2022-09-06T03:58:34.470Z,19.87
2022-09-06T04:01:22.612Z,19.83
2022-09-06T04:04:10.513Z,19.56
2022-09-06T04:06:58.242Z,19.45
2022-09-06T04:09:45.987Z,19.37
2022-09-06T04:12:34.860Z,19.33
2022-09-06T04:15:22.613Z,19.50
2022-09-06T04:18:12.892Z,19.43
2022-09-06T04:21:00.648Z,19.41
2022-09-06T04:23:48.431Z,19.34
2022-09-06T04:26:36.488Z,19.45
2022-09-06T04:29:24.656Z,19.50
2022-09-06T04:32:12.498Z,19.67
2022-09-06T04:35:00.305Z,19.55
2022-09-06T04:37:48.065Z,19.55
2022-09-06T04:40:35.948Z,19.40
2022-09-06T04:43:24.120Z,19.29
2022-09-06T04:46:30.085Z,19.41
2022-09-06T04:49:17.843Z,19.44
2022-09-06T04:52:05.605Z,19.43
2022-09-06T04:54:53.361Z,19.34
2022-09-06T04:57:45.154Z,19.22
2022-09-06T05:00:35.762Z,19.20
2022-09-06T05:03:23.505Z,19.06
2022-09-06T05:06:18.355Z,19.20
2022-09-06T05:09:06.086Z,19.15
2022-09-06T05:11:53.815Z,19.10
2022-09-06T05:14:41.597Z,18.91
2022-09-06T05:17:29.324Z,19.13
2022-09-06T05:20:17.760Z,19.17
2022-09-06T05:23:05.590Z,19.11
2022-09-06T05:25:54.083Z,19.15
2022-09-06T05:28:41.990Z,19.00
2022-09-06T05:31:32.362Z,19.06
2022-09-06T05:34:20.142Z,19.00
2022-09-06T05:37:07.888Z,18.96
2022-09-06T05:39:55.748Z,19.08
2022-09-06T05:42:43.529Z,19.19
2022-09-06T05:45:31.520Z,19.46
2022-09-06T05:48:19.416Z,19.55
2022-09-06T05:51:12.963Z,19.76
2022-09-06T05:54:00.699Z,19.90
2022-09-06T05:56:48.610Z,20.11
2022-09-06T05:59:36.332Z,20.28
2022-09-06T06:02:24.388Z,20.68
2022-09-06T06:05:12.258Z,20.94
2022-09-06T06:07:59.997Z,21.28
2022-09-06T06:10:47.727Z,21.51
2022-09-06T06:13:39.485Z,21.73
2022-09-06T06:16:27.451Z,22.03
2022-09-06T06:19:15.350Z,22.18
2022-09-06T06:22:03.192Z,22.46
2022-09-06T06:24:50.920Z,22.68
2022-09-06T06:27:38.830Z,22.79
2022-09-06T06:30:26.535Z,23.05
2022-09-06T06:33:14.301Z,23.18
2022-09-06T06:36:13.948Z,23.44
2022-09-06T06:39:04.885Z,23.54
2022-09-06T06:41:53.414Z,23.51
2022-09-06T06:44:41.139Z,23.59
2022-09-06T06:47:30.372Z,23.81
2022-09-06T06:50:18.237Z,23.82
2022-09-06T06:53:05.973Z,24.08
2022-09-06T06:55:54.116Z,24.06
2022-09-06T06:58:41.926Z,24.16
2022-09-06T07:01:33.875Z,24.38
2022-09-06T07:04:21.880Z,24.60
2022-09-06T07:13:20.702Z,25.04
2022-09-06T07:16:15.244Z,24.96
2022-09-06T07:19:03.940Z,25.10
2022-09-06T07:21:51.746Z,25.16
2022-09-06T07:24:39.596Z,24.91
2022-09-06T07:30:37.346Z,25.17
2022-09-06T07:33:25.380Z,25.39
2022-09-06T07:36:13.136Z,25.68
2022-09-06T07:39:01.136Z,25.92
2022-09-06T07:41:49.129Z,25.98
2022-09-06T07:44:36.938Z,26.03
2022-09-06T07:50:49.255Z,26.36
2022-09-06T07:53:39.843Z,26.34
2022-09-06T07:56:27.568Z,26.29
2022-09-06T07:59:18.090Z,26.26
2022-09-06T08:02:06.314Z,26.55
2022-09-06T08:04:54.192Z,27.05
2022-09-06T08:07:41.979Z,27.71
2022-09-06T08:10:32.011Z,28.00
2022-09-06T08:13:19.867Z,28.93
2022-09-06T08:16:11.716Z,29.42
2022-09-06T08:19:02.925Z,29.38
2022-09-06T08:21:56.347Z,29.16
2022-09-06T08:24:44.207Z,28.38
2022-09-06T08:27:35.184Z,28.55
2022-09-06T08:30:23.123Z,28.96
2022-09-06T08:33:15.798Z,29.25
2022-09-06T08:36:04.947Z,29.81
2022-09-06T08:38:52.929Z,30.43
2022-09-06T08:41:56.743Z,31.38
2022-09-06T08:44:55.115Z,31.86
2022-09-06T08:47:46.260Z,32.02
2022-09-06T08:50:38.651Z,31.36
2022-09-06T08:53:27.157Z,31.52
2022-09-06T08:56:29.716Z,32.11
2022-09-06T08:59:19.940Z,32.52
2022-09-06T09:02:23.106Z,32.93
2022-09-06T09:05:23.660Z,33.71
2022-09-06T09:08:29.447Z,34.80
2022-09-06T09:11:25.268Z,35.65
2022-09-06T09:14:22.774Z,36.40
2022-09-06T09:17:24.786Z,37.00
2022-09-06T09:20:17.410Z,37.63
2022-09-06T09:23:15.495Z,38.74
2022-09-06T09:26:15.508Z,39.19
2022-09-06T09:29:15.009Z,39.12
2022-09-06T09:32:08.069Z,39.58
2022-09-06T09:35:20.136Z,40.31
2022-09-06T09:38:27.449Z,40.73
2022-09-06T09:41:36.036Z,39.24
2022-09-06T09:44:29.841Z,38.82
2022-09-06T09:47:32.604Z,38.92
2022-09-06T09:50:36.358Z,39.30
2022-09-06T09:53:29.331Z,38.56
2022-09-06T09:56:32.841Z,37.13
2022-09-06T09:59:33.800Z,34.98
2022-09-06T10:02:42.131Z,33.69
2022-09-06T10:05:34.825Z,32.49
2022-09-06T10:08:29.035Z,31.42
2022-09-06T10:11:48.600Z,30.56
2022-09-06T10:14:46.967Z,29.55
2022-09-06T10:17:37.655Z,29.13
2022-09-06T10:21:03.391Z,29.00
2022-09-06T10:24:27.952Z,28.85
2022-09-06T10:27:23.908Z,28.65
2022-09-06T10:30:13.993Z,28.56
2022-09-06T10:33:27.867Z,28.59
2022-09-06T10:36:22.650Z,28.55
2022-09-06T10:39:46.858Z,28.33
2022-09-06T10:42:47.913Z,28.37
2022-09-06T10:45:41.105Z,28.39
2022-09-06T10:48:39.359Z,28.37
2022-09-06T10:51:38.548Z,28.36
2022-09-06T10:54:26.748Z,28.19
2022-09-06T11:00:46.779Z,28.11
2022-09-06T11:04:01.914Z,28.12
2022-09-06T11:06:56.642Z,28.11
2022-09-06T11:09:53.305Z,28.15
2022-09-06T11:12:54.636Z,28.27
2022-09-06T11:15:47.781Z,28.18
2022-09-06T11:19:05.263Z,28.11
2022-09-06T11:22:01.603Z,28.13
2022-09-06T11:25:25.436Z,28.20
2022-09-06T11:28:30.644Z,28.04
2022-09-06T11:34:41.116Z,28.16
2022-09-06T11:37:35.343Z,28.23
2022-09-06T11:40:29.697Z,28.21
2022-09-06T11:43:43.936Z,28.30
2022-09-06T11:46:34.638Z,28.31
2022-09-06T11:49:33.654Z,28.21
2022-09-06T11:52:59.503Z,28.23
2022-09-06T11:56:03.729Z,28.30
2022-09-06T11:59:00.354Z,28.28
2022-09-06T12:02:42.363Z,28.41
2022-09-06T12:05:32.148Z,28.37
2022-09-06T12:08:30.884Z,28.29
2022-09-06T12:11:44.149Z,28.31
2022-09-06T12:14:43.179Z,28.44
2022-09-06T12:17:47.672Z,28.35
2022-09-06T12:20:53.130Z,28.54
2022-09-06T12:23:42.716Z,28.45
2022-09-06T12:26:56.052Z,28.62
2022-09-06T12:29:58.509Z,28.53
2022-09-06T12:32:49.640Z,28.58
2022-09-06T12:39:02.395Z,28.56
2022-09-06T12:42:06.689Z,28.54
2022-09-06T12:44:55.563Z,28.58
2022-09-06T12:47:43.335Z,28.54
2022-09-06T12:50:31.601Z,28.66
2022-09-06T12:53:24.606Z,28.72
2022-09-06T12:56:12.952Z,28.55
2022-09-06T12:59:27.019Z,28.52
2022-09-06T13:02:24.294Z,28.47
2022-09-06T13:05:13.243Z,28.61
2022-09-06T13:08:03.535Z,28.53
2022-09-06T13:10:51.627Z,28.50
2022-09-06T13:13:52.082Z,28.54
2022-09-06T13:16:50.623Z,28.48
2022-09-06T13:19:40.495Z,28.69
2022-09-06T13:22:45.493Z,28.79
2022-09-06T13:25:49.796Z,28.77
2022-09-06T13:28:37.843Z,28.78
2022-09-06T13:31:27.246Z,28.80
2022-09-06T13:34:49.576Z,28.77
2022-09-06T13:37:40.786Z,28.87
2022-09-06T13:41:09.823Z,28.94
2022-09-06T13:44:21.902Z,28.88
2022-09-06T13:47:09.713Z,28.90
2022-09-06T13:49:57.499Z,29.00
2022-09-06T13:52:47.887Z,29.03
2022-09-06T13:55:35.851Z,29.23
2022-09-06T13:58:29.816Z,29.31
2022-09-06T14:01:17.760Z,29.40
2022-09-06T14:04:11.714Z,29.45
2022-09-06T14:06:59.711Z,29.50
2022-09-06T14:09:47.814Z,29.51
2022-09-06T14:12:36.055Z,29.53
2022-09-06T14:15:23.902Z,29.31
2022-09-06T14:18:14.442Z,29.40
2022-09-06T14:21:02.611Z,29.37
2022-09-06T14:23:52.606Z,29.51
2022-09-06T14:26:40.438Z,29.63
2022-09-06T14:29:28.467Z,29.60
2022-09-06T14:32:20.523Z,29.83
2022-09-06T14:35:12.479Z,29.78
2022-09-06T14:38:00.321Z,29.77
2022-09-06T14:40:48.109Z,29.72
2022-09-06T14:48:03.225Z,29.86
2022-09-06T14:55:18.677Z,30.00
2022-09-06T14:58:06.426Z,29.75
2022-09-06T15:00:54.629Z,29.92
2022-09-06T15:03:48.522Z,29.96
2022-09-06T15:06:40.241Z,29.93
2022-09-06T15:09:31.068Z,29.99
2022-09-06T15:12:21.888Z,29.72
2022-09-06T15:15:14.545Z,29.74
2022-09-06T15:18:08.352Z,29.75
2022-09-06T15:20:58.765Z,29.49
2022-09-06T15:23:54.343Z,29.51
2022-09-06T15:26:46.107Z,29.39
2022-09-06T15:29:36.611Z,29.41
2022-09-06T15:32:27.394Z,29.36
2022-09-06T15:35:15.935Z,29.20
2022-09-06T15:38:04.588Z,29.43
2022-09-06T15:40:52.452Z,29.41
2022-09-06T15:43:47.039Z,29.41
2022-09-06T15:46:59.804Z,29.35
2022-09-06T15:49:52.549Z,29.36
2022-09-06T15:52:40.394Z,29.43
2022-09-06T15:55:46.864Z,29.45
2022-09-06T15:58:34.895Z,29.42
2022-09-06T16:01:26.995Z,29.40
2022-09-06T16:04:17.012Z,29.23
2022-09-06T16:07:05.700Z,29.29
2022-09-06T16:09:53.404Z,29.20
2022-09-06T16:12:48.609Z,29.13
2022-09-06T16:15:38.207Z,28.97
2022-09-06T16:18:33.545Z,28.86
2022-09-06T16:21:25.285Z,28.75
2022-09-06T16:24:13.931Z,28.62
2022-09-06T16:27:02.834Z,28.48
2022-09-06T16:29:50.614Z,28.48
2022-09-06T16:32:44.457Z,28.36
2022-09-06T16:35:32.181Z,28.28
2022-09-06T16:38:19.857Z,28.17
2022-09-06T16:41:21.931Z,28.13
2022-09-06T16:44:16.276Z,27.96
2022-09-06T16:47:05.286Z,27.96
2022-09-06T16:49:53.048Z,27.84
2022-09-06T16:52:41.013Z,27.72
2022-09-06T16:55:29.018Z,27.66
2022-09-06T16:58:17.946Z,27.57
2022-09-06T17:01:06.495Z,27.43
2022-09-06T17:03:54.787Z,27.48
2022-09-06T17:06:44.367Z,27.08
2022-09-06T17:09:34.379Z,26.69
2022-09-06T17:12:22.179Z,26.46
2022-09-06T17:15:10.576Z,25.99
2022-09-06T17:17:58.320Z,25.65
2022-09-06T17:21:04.628Z,25.14
2022-09-06T17:23:53.207Z,24.43
2022-09-06T17:26:41.118Z,24.16
2022-09-06T17:29:29.223Z,23.86
2022-09-06T17:32:16.932Z,23.60
2022-09-06T17:35:05.337Z,23.40
2022-09-06T17:37:56.137Z,23.36
2022-09-06T17:40:43.863Z,23.08
2022-09-06T17:43:32.487Z,22.69
2022-09-06T17:46:28.450Z,22.39
2022-09-06T17:49:18.665Z,22.11
2022-09-06T17:52:06.427Z,21.64
2022-09-06T17:54:55.006Z,21.29
2022-09-06T17:57:42.811Z,21.11
2022-09-06T18:00:30.937Z,20.86
2022-09-06T18:03:18.667Z,20.82
2022-09-06T18:06:15.899Z,20.81
2022-09-06T18:09:11.433Z,20.77
2022-09-06T18:11:59.487Z,20.91
2022-09-06T18:14:47.458Z,21.05
2022-09-06T18:17:35.212Z,21.03
2022-09-06T18:20:25.383Z,21.09
2022-09-06T18:23:13.154Z,21.08
2022-09-06T18:26:07.648Z,20.79
2022-09-06T18:28:55.498Z,20.37
2022-09-06T18:31:44.336Z,19.58
2022-09-06T18:34:32.167Z,19.56
2022-09-06T18:37:19.937Z,19.48
2022-09-06T18:40:11.376Z,19.52
2022-09-06T18:42:59.237Z,19.35
2022-09-06T18:45:47.056Z,19.31
2022-09-06T18:48:36.689Z,19.45
2022-09-06T18:51:24.540Z,19.21
2022-09-06T18:54:13.113Z,19.38
2022-09-06T18:57:00.907Z,19.30
2022-09-06T18:59:48.640Z,19.19
2022-09-06T19:02:36.381Z,19.36
2022-09-06T19:05:24.162Z,19.41
2022-09-06T19:08:12.025Z,19.50
2022-09-06T19:11:07.533Z,19.60
2022-09-06T19:13:57.821Z,19.66
2022-09-06T19:16:46.362Z,19.70
2022-09-06T19:19:34.208Z,19.84
2022-09-06T19:22:22.777Z,19.88
2022-09-06T19:25:10.904Z,19.68
2022-09-06T19:27:59.018Z,19.73
2022-09-06T19:30:46.780Z,19.85
2022-09-06T19:33:36.296Z,19.78
2022-09-06T19:36:25.987Z,19.84
2022-09-06T19:39:15.921Z,19.83
2022-09-06T19:42:04.213Z,19.72
2022-09-06T19:44:52.103Z,19.57
2022-09-06T19:47:40.055Z,19.75
2022-09-06T19:50:28.062Z,19.70
2022-09-06T19:53:15.900Z,19.73
2022-09-06T19:56:24.812Z,19.71
2022-09-06T19:59:14.083Z,19.67
2022-09-06T20:02:03.377Z,19.59
2022-09-06T20:04:51.283Z,19.58
2022-09-06T20:07:39.109Z,19.62
2022-09-06T20:10:26.838Z,19.47
2022-09-06T20:13:14.553Z,19.61
2022-09-06T20:16:08.506Z,19.55
2022-09-06T20:18:58.852Z,19.54
2022-09-06T20:21:46.723Z,19.42
2022-09-06T20:24:34.595Z,19.39
2022-09-06T20:27:22.488Z,19.38
2022-09-06T20:30:11.081Z,19.42
2022-09-06T20:33:01.899Z,19.34
2022-09-06T20:35:58.152Z,19.42
2022-09-06T20:38:47.865Z,19.42
2022-09-06T20:41:35.711Z,19.45
2022-09-06T20:44:23.524Z,19.29
2022-09-06T20:47:11.285Z,19.26
2022-09-06T20:49:59.061Z,19.20
2022-09-06T20:52:46.909Z,19.22
2022-09-06T20:55:34.707Z,18.99
2022-09-06T20:58:22.473Z,18.91
2022-09-06T21:01:22.201Z,18.98
2022-09-06T21:04:12.367Z,18.96
2022-09-06T21:07:00.221Z,18.87
2022-09-06T21:09:48.032Z,18.97
2022-09-06T21:12:35.848Z,18.78
2022-09-06T21:15:23.572Z,18.73
2022-09-06T21:18:11.326Z,18.75
2022-09-06T21:21:01.550Z,18.84
2022-09-06T21:23:49.782Z,18.75
2022-09-06T21:26:38.021Z,18.74
2022-09-06T21:29:25.751Z,18.63
2022-09-06T21:32:13.534Z,18.70
2022-09-06T21:35:01.334Z,18.38
2022-09-06T21:37:49.142Z,18.29
2022-09-06T21:40:36.899Z,18.23
2022-09-06T21:43:24.888Z,18.17
2022-09-06T21:46:20.308Z,18.21
2022-09-06T21:49:12.041Z,18.20
2022-09-06T21:52:00.060Z,18.08
2022-09-06T21:54:47.817Z,18.17
2022-09-06T21:57:35.576Z,18.08
2022-09-06T22:00:23.361Z,17.95
2022-09-06T22:03:11.070Z,18.08
2022-09-06T22:05:59.274Z,18.10
2022-09-06T22:08:47.818Z,18.18
2022-09-06T22:11:35.980Z,18.14
2022-09-06T22:14:23.762Z,18.19
2022-09-06T22:17:11.510Z,18.14
2022-09-06T22:19:59.318Z,18.23
2022-09-06T22:22:47.078Z,18.28
2022-09-06T22:25:34.990Z,18.29
2022-09-06T22:28:22.859Z,18.28
2022-09-06T22:31:10.877Z,18.30
2022-09-06T22:33:59.375Z,18.24
2022-09-06T22:36:47.261Z,18.28
2022-09-06T22:39:35.046Z,18.24
2022-09-06T22:42:22.749Z,18.28
2022-09-06T22:45:10.754Z,18.22
2022-09-06T22:47:59.277Z,18.26
2022-09-06T22:50:47.105Z,18.27
2022-09-06T22:53:35.358Z,18.32
2022-09-06T22:56:23.152Z,18.35
2022-09-06T22:59:11.038Z,18.36
2022-09-06T23:01:58.838Z,18.35
2022-09-06T23:04:46.729Z,18.40
2022-09-06T23:07:34.504Z,18.39
2022-09-06T23:10:22.909Z,18.30
2022-09-06T23:13:11.404Z,18.41
2022-09-06T23:16:08.010Z,18.41
2022-09-06T23:18:55.828Z,18.36
2022-09-06T23:21:43.628Z,18.44
2022-09-06T23:24:31.374Z,18.41
2022-09-06T23:27:19.273Z,18.44
2022-09-06T23:30:08.115Z,18.45
2022-09-06T23:32:56.425Z,18.38
2022-09-06T23:35:44.393Z,18.43
2022-09-06T23:38:34.487Z,18.49
2022-09-06T23:41:22.719Z,18.39
2022-09-06T23:44:10.546Z,18.44
2022-09-06T23:46:58.378Z,18.45
2022-09-06T23:49:46.645Z,18.53
2022-09-06T23:52:34.454Z,18.43
2022-09-06T23:55:22.185Z,18.58
2022-09-06T23:58:10.298Z,18.38
